Map

Track Data

SID SEASON NUMBER BASIN SUBBASIN NAME ISO_TIME NATURE LAT LON WMO_WIND WMO_PRES WMO_AGENCY TRACK_TYPE DIST2LAND LANDFALL IFLAG USA_AGENCY USA_ATCF_ID USA_LAT USA_LON USA_RECORD USA_STATUS USA_WIND USA_PRES USA_SSHS USA_R34_NE USA_R34_SE USA_R34_SW USA_R34_NW USA_R50_NE USA_R50_SE USA_R50_SW USA_R50_NW USA_R64_NE USA_R64_SE USA_R64_SW USA_R64_NW USA_POCI USA_ROCI USA_RMW USA_EYE TOKYO_LAT TOKYO_LON TOKYO_GRADE TOKYO_WIND TOKYO_PRES TOKYO_R50_DIR TOKYO_R50_LONG TOKYO_R50_SHORT TOKYO_R30_DIR TOKYO_R30_LONG TOKYO_R30_SHORT TOKYO_LAND CMA_LAT CMA_LON CMA_CAT CMA_WIND CMA_PRES HKO_LAT HKO_LON HKO_CAT HKO_WIND HKO_PRES NEWDELHI_LAT NEWDELHI_LON NEWDELHI_GRADE NEWDELHI_WIND NEWDELHI_PRES NEWDELHI_CI NEWDELHI_DP NEWDELHI_POCI REUNION_LAT REUNION_LON REUNION_TYPE REUNION_WIND REUNION_PRES REUNION_TNUM REUNION_CI REUNION_RMW REUNION_R34_NE REUNION_R34_SE REUNION_R34_SW REUNION_R34_NW REUNION_R50_NE REUNION_R50_SE REUNION_R50_SW REUNION_R50_NW REUNION_R64_NE REUNION_R64_SE REUNION_R64_SW REUNION_R64_NW BOM_LAT BOM_LON BOM_TYPE BOM_WIND BOM_PRES BOM_TNUM BOM_CI BOM_RMW BOM_R34_NE BOM_R34_SE BOM_R34_SW BOM_R34_NW BOM_R50_NE BOM_R50_SE BOM_R50_SW BOM_R50_NW BOM_R64_NE BOM_R64_SE BOM_R64_SW BOM_R64_NW BOM_ROCI BOM_POCI BOM_EYE BOM_POS_METHOD BOM_PRES_METHOD NADI_LAT NADI_LON NADI_CAT NADI_WIND NADI_PRES WELLINGTON_LAT WELLINGTON_LON WELLINGTON_WIND WELLINGTON_PRES DS824_LAT DS824_LON DS824_STAGE DS824_WIND DS824_PRES TD9636_LAT TD9636_LON TD9636_STAGE TD9636_WIND TD9636_PRES TD9635_LAT TD9635_LON TD9635_WIND TD9635_PRES TD9635_ROCI NEUMANN_LAT NEUMANN_LON NEUMANN_CLASS NEUMANN_WIND NEUMANN_PRES MLC_LAT MLC_LON MLC_CLASS MLC_WIND MLC_PRES USA_GUST BOM_GUST BOM_GUST_PER REUNION_GUST REUNION_GUST_PER USA_SEAHGT USA_SEARAD_NE USA_SEARAD_SE USA_SEARAD_SW USA_SEARAD_NW STORM_SPEED STORM_DIR
2001146N14259 2001 23 EP MM ADOLPH 2001-05-25 18:00:00 TS 13.6000 -101.100 25 1006 hurdat_epa main 378 378 O_____________ hurdat_epa EP012001 13.6000 -101.100 TD 25 1006 -1 1 311
2001146N14259 2001 23 EP MM ADOLPH 2001-05-25 21:00:00 TS 13.6450 -101.152 main 382 372 P_____________ EP012001 13.6450 -101.152 TD 27 1006 -1 1 317
2001146N14259 2001 23 EP MM ADOLPH 2001-05-26 00:00:00 TS 13.7000 -101.200 30 1006 hurdat_epa main 372 362 O_____________ hurdat_epa EP012001 13.7000 -101.200 TD 30 1006 -1 1 327
2001146N14259 2001 23 EP MM ADOLPH 2001-05-26 03:00:00 TS 13.7650 -101.230 main 362 362 P_____________ EP012001 13.7650 -101.230 TD 30 1006 -1 1 0
2001146N14259 2001 23 EP MM ADOLPH 2001-05-26 06:00:00 TS 13.8000 -101.200 30 1006 hurdat_epa main 362 357 O_____________ hurdat_epa EP012001 13.8000 -101.200 TD 30 1006 -1 1 90
2001146N14259 2001 23 EP MM ADOLPH 2001-05-26 09:00:00 TS 13.7650 -101.080 main 357 353 P_____________ EP012001 13.7650 -101.080 TD 30 1006 -1 3 109
2001146N14259 2001 23 EP MM ADOLPH 2001-05-26 12:00:00 TS 13.7000 -100.900 30 1006 hurdat_epa main 359 352 O_____________ hurdat_epa EP012001 13.7000 -100.900 TD 30 1006 -1 4 107
2001146N14259 2001 23 EP MM ADOLPH 2001-05-26 15:00:00 TS 13.6500 -100.700 main 352 352 P_____________ EP012001 13.6500 -100.700 TD 32 1005 -1 4 104
2001146N14259 2001 23 EP MM ADOLPH 2001-05-26 18:00:00 TS 13.6000 -100.500 35 1004 hurdat_epa main 357 352 O_____________ hurdat_epa EP012001 13.6000 -100.500 TS 35 1004 0 4 105
2001146N14259 2001 23 EP MM ADOLPH 2001-05-26 21:00:00 TS 13.5575 -100.335 main 352 352 P_____________ EP012001 13.5575 -100.335 TS 37 1002 0 3 109
2001146N14259 2001 23 EP MM ADOLPH 2001-05-27 00:00:00 TS 13.5000 -100.200 40 1000 hurdat_epa main 357 352 O_____________ hurdat_epa EP012001 13.5000 -100.200 TS 40 1000 0 120 120 120 120 1008 175 40 3 125
2001146N14259 2001 23 EP MM ADOLPH 2001-05-27 03:00:00 TS 13.4000 -100.100 main 362 362 P_____________ EP012001 13.4000 -100.100 TS 45 998 0 120 120 120 120 1008 175 40 3 136
2001146N14259 2001 23 EP MM ADOLPH 2001-05-27 06:00:00 TS 13.3000 -100.000 50 997 hurdat_epa main 368 363 O_____________ hurdat_epa EP012001 13.3000 -100.000 TS 50 997 0 120 120 120 120 1008 175 40 3 128
2001146N14259 2001 23 EP MM ADOLPH 2001-05-27 09:00:00 TS 13.2125 -99.8500 main 370 366 P_____________ EP012001 13.2125 -99.8500 TS 55 994 0 120 120 120 120 1008 175 32 3 109
2001146N14259 2001 23 EP MM ADOLPH 2001-05-27 12:00:00 TS 13.2000 -99.7000 60 992 hurdat_epa main 366 352 O_____________ hurdat_epa EP012001 13.2000 -99.7000 TS 60 992 0 120 120 120 120 1008 175 25 3 71
2001146N14259 2001 23 EP MM ADOLPH 2001-05-27 15:00:00 TS 13.3125 -99.5551 main 352 328 P_____________ EP012001 13.3125 -99.5551 TS 67 986 1 4 33
2001146N14259 2001 23 EP MM ADOLPH 2001-05-27 18:00:00 TS 13.5000 -99.5000 75 980 hurdat_epa main 328 310 O_____________ hurdat_epa EP012001 13.5000 -99.5000 HU 75 980 1 4 352
2001146N14259 2001 23 EP MM ADOLPH 2001-05-27 21:00:00 TS 13.7000 -99.6049 main 310 297 P_____________ EP012001 13.7000 -99.6049 HU 85 972 2 5 324
2001146N14259 2001 23 EP MM ADOLPH 2001-05-28 00:00:00 TS 13.9000 -99.8000 95 965 hurdat_epa main 297 288 O_____________ hurdat_epa EP012001 13.9000 -99.8000 HU 95 965 2 5 314
2001146N14259 2001 23 EP MM ADOLPH 2001-05-28 03:00:00 TS 14.0650 -100.000 main 288 283 P_____________ EP012001 14.0650 -100.000 HU 100 962 3 5 308
2001146N14259 2001 23 EP MM ADOLPH 2001-05-28 06:00:00 TS 14.2000 -100.200 105 960 hurdat_epa main 284 276 O_____________ hurdat_epa EP012001 14.2000 -100.200 HU 105 960 3 4 307
2001146N14259 2001 23 EP MM ADOLPH 2001-05-28 09:00:00 TS 14.2999 -100.328 main 276 268 P_____________ EP012001 14.2999 -100.328 HU 107 957 3 4 304
2001146N14259 2001 23 EP MM ADOLPH 2001-05-28 12:00:00 TS 14.4000 -100.500 110 955 hurdat_epa main 271 264 O_____________ hurdat_epa EP012001 14.4000 -100.500 HU 110 955 3 5 298
2001146N14259 2001 23 EP MM ADOLPH 2001-05-28 15:00:00 TS 14.5425 -100.805 main 272 262 P_____________ EP012001 14.5425 -100.805 HU 112 951 3 7 294
2001146N14259 2001 23 EP MM ADOLPH 2001-05-28 18:00:00 TS 14.7000 -101.200 115 948 hurdat_epa main 275 271 O_____________ hurdat_epa EP012001 14.7000 -101.200 HU 115 948 4 8 291
2001146N14259 2001 23 EP MM ADOLPH 2001-05-28 21:00:00 TS 14.8499 -101.620 main 281 271 P_____________ EP012001 14.8499 -101.620 HU 120 944 4 9 289
2001146N14259 2001 23 EP MM ADOLPH 2001-05-29 00:00:00 TS 15.0000 -102.100 125 940 hurdat_epa main 278 277 O_____________ hurdat_epa EP012001 15.0000 -102.100 HU 125 940 4 10 287
2001146N14259 2001 23 EP MM ADOLPH 2001-05-29 03:00:00 TS 15.1575 -102.642 main 284 284 P_____________ EP012001 15.1575 -102.642 HU 125 940 4 11 286
2001146N14259 2001 23 EP MM ADOLPH 2001-05-29 06:00:00 TS 15.3000 -103.200 125 940 hurdat_epa main 306 303 O_____________ hurdat_epa EP012001 15.3000 -103.200 HU 125 940 4 11 284
2001146N14259 2001 23 EP MM ADOLPH 2001-05-29 09:00:00 TS 15.4073 -103.708 main 313 313 P_____________ EP012001 15.4073 -103.708 HU 125 940 4 10 282
2001146N14259 2001 23 EP MM ADOLPH 2001-05-29 12:00:00 TS 15.5000 -104.200 125 940 hurdat_epa main 320 320 O_____________ hurdat_epa EP012001 15.5000 -104.200 HU 125 940 4 10 281
2001146N14259 2001 23 EP MM ADOLPH 2001-05-29 15:00:00 TS 15.5999 -104.708 main 328 328 P_____________ EP012001 15.5999 -104.708 HU 120 944 4 10 282
2001146N14259 2001 23 EP MM ADOLPH 2001-05-29 18:00:00 TS 15.7000 -105.200 115 948 hurdat_epa main 342 342 O_____________ hurdat_epa EP012001 15.7000 -105.200 HU 115 948 4 9 283
2001146N14259 2001 23 EP MM ADOLPH 2001-05-29 21:00:00 TS 15.8074 -105.658 main 364 364 P_____________ EP012001 15.8074 -105.658 HU 112 951 3 9 283
2001146N14259 2001 23 EP MM ADOLPH 2001-05-30 00:00:00 TS 15.9000 -106.100 110 955 hurdat_epa main 385 385 O_____________ hurdat_epa EP012001 15.9000 -106.100 HU 110 955 3 9 279
2001146N14259 2001 23 EP MM ADOLPH 2001-05-30 03:00:00 TS 15.9500 -106.558 main 415 405 P_____________ EP012001 15.9500 -106.558 HU 105 957 3 9 277
2001146N14259 2001 23 EP MM ADOLPH 2001-05-30 06:00:00 TS 16.0000 -107.000 100 960 hurdat_epa main 427 427 O_____________ hurdat_epa EP012001 16.0000 -107.000 HU 100 960 3 8 280
2001146N14259 2001 23 EP MM ADOLPH 2001-05-30 09:00:00 TS 16.0999 -107.407 main 442 442 P_____________ EP012001 16.0999 -107.407 HU 97 962 3 8 285
2001146N14259 2001 23 EP MM ADOLPH 2001-05-30 12:00:00 TS 16.2000 -107.800 95 965 hurdat_epa main 462 462 O_____________ hurdat_epa EP012001 16.2000 -107.800 HU 95 965 2 8 282
2001146N14259 2001 23 EP MM ADOLPH 2001-05-30 15:00:00 TS 16.2574 -108.200 main 484 484 P_____________ EP012001 16.2574 -108.200 HU 92 970 2 8 277
2001146N14259 2001 23 EP MM ADOLPH 2001-05-30 18:00:00 TS 16.3000 -108.600 90 975 hurdat_epa main 515 515 O_____________ hurdat_epa EP012001 16.3000 -108.600 HU 90 975 2 8 277
2001146N14259 2001 23 EP MM ADOLPH 2001-05-30 21:00:00 TS 16.3574 -109.000 main 537 537 P_____________ EP012001 16.3574 -109.000 HU 85 977 2 8 277
2001146N14259 2001 23 EP MM ADOLPH 2001-05-31 00:00:00 TS 16.4000 -109.400 80 979 hurdat_epa main 569 569 O_____________ hurdat_epa EP012001 16.4000 -109.400 HU 80 979 1 8 274
2001146N14259 2001 23 EP MM ADOLPH 2001-05-31 03:00:00 TS 16.4075 -109.815 main 602 602 P_____________ EP012001 16.4075 -109.815 HU 75 980 1 8 270
2001146N14259 2001 23 EP MM ADOLPH 2001-05-31 06:00:00 TS 16.4000 -110.200 70 982 hurdat_epa main 636 636 O_____________ hurdat_epa EP012001 16.4000 -110.200 HU 70 982 1 7 270
2001146N14259 2001 23 EP MM ADOLPH 2001-05-31 09:00:00 TS 16.4074 -110.522 main 662 662 P_____________ EP012001 16.4074 -110.522 HU 67 984 1 6 270
2001146N14259 2001 23 EP MM ADOLPH 2001-05-31 12:00:00 TS 16.4000 -110.800 65 987 hurdat_epa main 688 688 O_____________ hurdat_epa EP012001 16.4000 -110.800 HU 65 987 1 5 264
2001146N14259 2001 23 EP MM ADOLPH 2001-05-31 15:00:00 TS 16.3574 -111.058 main 715 715 P_____________ EP012001 16.3574 -111.058 HU 65 988 1 5 258
2001146N14259 2001 23 EP MM ADOLPH 2001-05-31 18:00:00 TS 16.3000 -111.300 65 990 hurdat_epa main 739 739 O_____________ hurdat_epa EP012001 16.3000 -111.300 HU 65 990 1 5 257
2001146N14259 2001 23 EP MM ADOLPH 2001-05-31 21:00:00 TS 16.2425 -111.573 main 767 767 P_____________ EP012001 16.2425 -111.573 HU 60 993 0 5 258
2001146N14259 2001 23 EP MM ADOLPH 2001-06-01 00:00:00 TS 16.2000 -111.800 55 997 hurdat_epa main 772 772 O_____________ hurdat_epa EP012001 16.2000 -111.800 TS 55 997 0 90 80 80 90 1010 175 20 3 260
2001146N14259 2001 23 EP MM ADOLPH 2001-06-01 03:00:00 TS 16.1849 -111.915 main 775 775 P_____________ EP012001 16.1849 -111.915 TS 50 1000 0 70 65 85 90 1010 175 20 2 270
2001146N14259 2001 23 EP MM ADOLPH 2001-06-01 06:00:00 TS 16.2000 -112.000 45 1003 hurdat_epa main 778 778 O_____________ hurdat_epa EP012001 16.2000 -112.000 TS 45 1003 0 50 50 90 90 1010 175 20 2 284
2001146N14259 2001 23 EP MM ADOLPH 2001-06-01 09:00:00 TS 16.2425 -112.150 main 781 773 P_____________ EP012001 16.2425 -112.150 TS 40 1004 0 40 50 90 90 1010 175 35 3 289
2001146N14259 2001 23 EP MM ADOLPH 2001-06-01 12:00:00 TS 16.3000 -112.300 35 1005 hurdat_epa main 776 776 O_____________ hurdat_epa EP012001 16.3000 -112.300 TS 35 1005 0 30 50 90 90 1010 175 50 3 293
2001146N14259 2001 23 EP MM ADOLPH 2001-06-01 15:00:00 TS 16.3525 -112.413 main 769 769 P_____________ EP012001 16.3525 -112.413 TS 32 1005 -1 2 297
2001146N14259 2001 23 EP MM ADOLPH 2001-06-01 18:00:00 TS 16.4000 -112.500 30 1006 hurdat_epa main 772 O_____________ hurdat_epa EP012001 16.4000 -112.500 TD 30 1006 -1 2 299

About IBTrACS Database

This database is a web-friendly format of International Best Track Archive for Climate Stewardship (IBTrACS), a global best track data archive curated by NOAA dating back to 1842.

Updated: 2021-12-08